Dno, Russia
Current Conditions -  °F | °C
As of 1:00 PM on Friday 24 Oct 2014 (Local Time) from ULOO Reporting Station
Clear Clear  
Wind Chill: 28°   Ceiling: Unl
Heat Index: 32°   Visibility: 4mi
Dew Point: 25°   Wind: 4mph
Humidity: 75%   Direction: 140°SE
Pressure: 30.65"   Gusts: NA
Location:  57.83°N, 29.98°E
Report Text: ULOO 241000Z 14002MPS P6000 NSC M00/M04 Q1038 19090070 NOSIGRMK QFE774
Loading
Personal Weather Stations






























Interactive Weather Map
Tropical Storm Tracking
New forecast layout! Learn more

10-Day Weather Forecast

Advertisements
Track Severe Weather on mobile